Flight Track Log - Related Links

Times and Time Zones

All times are in EDT time to prevent confusion due to time zone crossing. See the EJA372P flight status page for this flight to view local times or setup timezone preferences in your user account.

Time Position Orientation Groundspeed Altitude Reporting Facility
EDT Latitude Longitude Course Direction KTS MPH feet Rate Location/Type
Sun 08:49:34 PM 41.0833 -73.7333 270° West 185 213 2,000  Level New York TRACON
Sun 08:50:34 PM 41.0833 -73.8000 270° West 208 239 4,500 3,100 Climbing New York TRACON
Sun 08:51:34 PM 41.0500 -73.9000 246° West 266 306 8,200 3,619 Climbing New York TRACON
Sun 08:52:40 PM 41.0333 -74.0000 258° West 278 320 12,100 3,238 Climbing New York TRACON
Sun 08:53:40 PM 41.0000 -74.1000 246° West 291 335 15,000 1,526 Climbing New York TRACON
Sun 08:54:34 PM 40.9667 -74.2000 246° West 347 399 15,000 474 Level New York TRACON
Sun 08:55:34 PM 40.9333 -74.3167 249° West 362 417 15,900 950 Climbing New York TRACON
Sun 08:56:34 PM 40.8833 -74.4500 244° Southwest 376 433 16,900 550 Climbing New York TRACON
Sun 08:57:34 PM 40.8500 -74.5667 249° West 378 435 17,000 65 Climbing New York TRACON
Sun 08:58:06 PM 40.8231 -74.6458 246° West 382 440 17,000  Level New York Center
Sun 08:59:06 PM 40.7903 -74.7536 248° West 394 453 17,000 550 Level New York Center
Sun 09:00:06 PM 40.7461 -74.8878 247° West 384 442 18,100 1,672 Climbing New York Center
Sun 09:01:08 PM 40.7067 -75.0033 246° West 377 434 20,400 2,400 Climbing New York Center
Sun 09:02:06 PM 40.6603 -75.1317 245° Southwest 377 434 22,900 2,542 Climbing New York Center
Sun 09:03:06 PM 40.6036 -75.2539 239° Southwest 388 447 25,400 2,430 Climbing New York Center
Sun 09:04:07 PM 40.5444 -75.3839 239° Southwest 399 459 27,800 2,182 Climbing New York Center
Sun 09:05:07 PM 40.4850 -75.5164 239° Southwest 414 476 29,800 2,000 Climbing New York Center
Sun 09:06:07 PM 40.4231 -75.6511 239° Southwest 425 489 31,800 1,900 Climbing New York Center
Sun 09:07:07 PM 40.3614 -75.7856 239° Southwest 431 496 33,600 1,714 Climbing New York Center
Sun 09:08:06 PM 40.2858 -75.9381 237° Southwest 441 507 35,200 1,563 Climbing New York Center
Sun 09:09:06 PM 40.2192 -76.0797 238° Southwest 451 519 36,700 1,438 Climbing New York Center
Sun 09:10:07 PM 40.1633 -76.2061 240° Southwest 451 519 38,100 1,438 Climbing New York Center
Sun 09:11:07 PM 40.0964 -76.3447 238° Southwest 456 525 39,600 594 Climbing New York Center
Sun 09:13:19 PM 39.9486 -76.6606 239° Southwest 453 521 40,000 124 Climbing Washington Center
Sun 09:14:20 PM 39.8869 -76.7758 235° Southwest 437 503 40,000  Level Washington Center
Sun 09:15:20 PM 39.8294 -76.9153 242° Southwest 442 509 40,000  Level Washington Center
Sun 09:16:21 PM 39.7653 -77.0519 239° Southwest 447 514 40,000  Level Washington Center
Sun 09:17:19 PM 39.7031 -77.1856 239° Southwest 447 514 40,000  Level Washington Center
Sun 09:18:19 PM 39.6408 -77.3161 238° Southwest 441 507 40,000  Level Washington Center
Sun 09:19:20 PM 39.5931 -77.4578 246° West 436 502 40,000  Level Washington Center
Sun 09:20:21 PM 39.5531 -77.5994 250° West 436 502 40,000  Level Washington Center
Sun 09:21:19 PM 39.5153 -77.7408 251° West 431 496 40,000  Level Washington Center
Sun 09:22:20 PM 39.4753 -77.8822 250° West 425 489 40,000  Level Washington Center
Sun 09:23:20 PM 39.4325 -78.0419 251° West 425 489 40,000  Level Washington Center
Sun 09:24:21 PM 39.3919 -78.1803 249° West 425 489 40,000  Level Washington Center
Sun 09:25:19 PM 39.3536 -78.3211 251° West 425 489 40,000  Level Washington Center
Sun 09:26:19 PM 39.3106 -78.4619 248° West 425 489 40,000  Level Washington Center
Sun 09:27:21 PM 39.2697 -78.5997 249° West 425 489 40,000  Level Washington Center
Sun 09:28:22 PM 39.2308 -78.7400 250° West 425 489 40,000 -203 Level Washington Center
Sun 09:29:19 PM 39.1894 -78.8803 249° West 425 489 39,600 -615 Descending Washington Center
Sun 09:30:19 PM 39.1503 -79.0203 250° West 425 489 38,800 -843 Descending Washington Center
Sun 09:31:20 PM 39.1064 -79.1653 249° West 430 495 37,900 -885 Descending Washington Center
Sun 09:32:21 PM 39.0711 -79.2947 251° West 430 495 37,000 -992 Descending Washington Center
Sun 09:33:21 PM 39.0203 -79.4550 248° West 430 495 35,900 -966 Descending Washington Center
Sun 09:34:19 PM 38.9853 -79.5708 249° West 435 501 35,100 -454 Descending Washington Center
Sun 09:35:20 PM 38.9375 -79.7469 251° West 435 501 35,000 -49 Descending Washington Center
Sun 09:36:21 PM 38.8950 -79.8858 249° West 435 501 35,000  Level Washington Center
Sun 09:37:04 PM 38.8619 -79.9825 246° West 412 474 35,000  Level Indianapolis Center
Sun 09:38:06 PM 38.8256 -80.1008 248° West 410 472 35,000  Level Indianapolis Center
Sun 09:39:07 PM 38.8161 -80.2439 265° West 401 461 35,000  Level Indianapolis Center
Sun 09:40:08 PM 38.8108 -80.4161 268° West 402 463 35,000  Level Indianapolis Center
Sun 09:41:10 PM 38.8042 -80.5597 267° West 404 465 35,000 -390 Level Indianapolis Center
Sun 09:42:11 PM 38.7811 -80.7014 258° West 407 468 34,200 -976 Descending Indianapolis Center
Sun 09:43:13 PM 38.7619 -80.8425 260° West 403 464 33,000 -1,073 Descending Indianapolis Center
Sun 09:44:14 PM 38.7419 -80.9875 260° West 411 473 32,000 -492 Descending Indianapolis Center
Sun 09:45:15 PM 38.7203 -81.1414 260° West 434 499 32,000  Level Indianapolis Center
Sun 09:46:16 PM 38.6975 -81.2997 260° West 449 517 32,000  Level Indianapolis Center
Sun 09:47:18 PM 38.6728 -81.4678 259° West 461 531 32,000  Level Indianapolis Center
Sun 09:48:19 PM 38.6494 -81.6322 260° West 469 540 32,000  Level Indianapolis Center
Sun 09:49:20 PM 38.6250 -81.8056 260° West 471 542 32,000  Level Indianapolis Center
Sun 09:50:21 PM 38.6003 -81.9669 259° West 462 532 32,000 -195 Level Indianapolis Center
Sun 09:51:23 PM 38.5772 -82.1219 259° West 447 514 31,600 -683 Descending Indianapolis Center
Sun 09:52:24 PM 38.5558 -82.2661 259° West 418 481 30,600 -984 Descending Indianapolis Center
Sun 09:53:25 PM 38.5331 -82.4058 258° West 403 464 29,600 -1,033 Descending Indianapolis Center
Sun 09:54:26 PM 38.5106 -82.5592 259° West 398 458 28,500 -1,024 Descending Indianapolis Center
Sun 09:55:28 PM 38.4897 -82.6925 259° West 390 449 27,500 -976 Descending Indianapolis Center
Sun 09:56:29 PM 38.4683 -82.8247 258° West 382 440 26,500 -984 Descending Indianapolis Center
Sun 09:57:30 PM 38.4475 -82.9603 259° West 389 448 25,500 -984 Descending Indianapolis Center
Sun 09:58:31 PM 38.4247 -83.0986 258° West 397 457 24,500 -1,082 Descending Indianapolis Center
Sun 09:59:32 PM 38.3992 -83.2603 259° West 398 458 23,300 -1,672 Descending Indianapolis Center
Sun 10:00:33 PM 38.3767 -83.3942 258° West 389 448 21,100 -2,016 Descending Indianapolis Center
Sun 10:01:34 PM 38.3997 -83.5164 284° West 364 419 19,200 -1,854 Descending Indianapolis Center
Sun 10:02:36 PM 38.4547 -83.6206 304° West 354 407 17,300 -1,756 Descending Indianapolis Center
Sun 10:03:37 PM 38.5075 -83.7197 304° West 338 389 15,600 -1,623 Descending Indianapolis Center
Sun 10:04:38 PM 38.5564 -83.8142 304° West 322 371 14,000 -1,574 Descending Indianapolis Center
Sun 10:05:39 PM 38.6053 -83.9075 304° West 316 364 12,400 -984 Descending Indianapolis Center
Sun 10:06:40 PM 38.6678 -83.9781 319° Northwest 317 365 12,000 -934 Descending Indianapolis Center
Sun 10:07:41 PM 38.7364 -84.0464 322° Northwest 311 358 10,500 -1,574 Descending Indianapolis Center
Sun 10:08:42 PM 38.8167 -84.1136 327° Northwest 294 338 8,800 -1,610 Descending Indianapolis Center
Sun 10:09:44 PM 38.8903 -84.1631 332° Northwest 294 338 7,200 -1,756 Descending Indianapolis Center
Sun 10:10:45 PM 38.9600 -84.2089 333° Northwest 284 327 5,200 -1,574 Descending Indianapolis Center
Sun 10:11:46 PM 39.0244 -84.2486 334° Northwest 270 311 4,000 -1,082 Descending Indianapolis Center
Sun 10:12:47 PM 39.0775 -84.2711 342° North 235 270 3,000 -492 Descending Indianapolis Center
Sun 10:13:48 PM 39.1328 -84.2756 356° North 209 241 3,000 -246 Level Indianapolis Center
Sun 10:14:49 PM 39.1825 -84.3058 335° Northwest 204 235 2,500 -344 Descending Indianapolis Center
Sun 10:15:50 PM 39.1847 -84.3603 273° West 191 220 2,300 -197 Descending Indianapolis Center
Sun 10:19:00 PM 39.1033 -84.4186 209° Southwest  Level Estimated

Login

Don't have an account? Register now (free) for customized features, flight alerts, and more!